Time;durP1;ratioP1;P1;durP2;ratioP2;P2;SDS_P1;SDS_P2;PMS_P1;PMS_P2;Temp;Humidity;BMP_temperature;BMP_pressure;BME280_temperature;BME280_humidity;BME280_pressure;Samples;Min_cycle;Max_cycle;Signal;HPM_P1;HPM_P2
2022/07/11 00:00:09;;;;;;;2.25;1.05;;;24.30;52.30;;;;;;5113811;28;20028;-71
2022/07/11 00:02:35;;;;;;;2.13;1.10;;;24.20;52.40;;;;;;5113564;28;20027;-71
2022/07/11 00:05:02;;;;;;;1.40;1.13;;;24.30;52.50;;;;;;5113558;28;20102;-71
2022/07/11 00:07:28;;;;;;;3.05;1.05;;;24.20;52.50;;;;;;5113389;28;20039;-72
2022/07/11 00:09:53;;;;;;;1.38;1.10;;;24.20;52.50;;;;;;5113300;28;20072;-71
2022/07/11 00:12:26;;;;;;;2.17;1.20;;;24.20;52.60;;;;;;5113290;28;20028;-71
2022/07/11 00:14:55;;;;;;;1.92;1.30;;;24.20;52.90;;;;;;5113559;28;20080;-71
2022/07/11 00:17:20;;;;;;;1.50;1.20;;;24.10;52.80;;;;;;5113135;28;20072;-71
2022/07/11 00:19:46;;;;;;;1.23;1.00;;;24.10;53.20;;;;;;5113250;28;20111;-71
2022/07/11 00:22:12;;;;;;;2.00;1.08;;;24.00;53.30;;;;;;5113088;28;20374;-71
2022/07/11 00:24:38;;;;;;;4.35;1.00;;;24.10;53.60;;;;;;5113296;28;20036;-71
2022/07/11 00:27:04;;;;;;;1.13;1.00;;;24.10;53.60;;;;;;5113258;28;20032;-71
2022/07/11 00:29:31;;;;;;;2.83;1.10;;;24.00;53.40;;;;;;5113340;28;20160;-71
2022/07/11 00:31:58;;;;;;;3.33;0.90;;;24.00;53.30;;;;;;5116548;28;20032;-71
2022/07/11 00:34:24;;;;;;;1.33;1.00;;;24.00;53.10;;;;;;5117343;28;20126;-71
2022/07/11 00:36:50;;;;;;;2.50;1.15;;;24.00;53.00;;;;;;5117309;28;20042;-71
2022/07/11 00:39:16;;;;;;;1.50;0.98;;;24.00;53.20;;;;;;5117478;28;20036;-71
2022/07/11 00:41:41;;;;;;;1.63;1.02;;;23.90;53.10;;;;;;5117393;28;20046;-71
2022/07/11 00:44:07;;;;;;;2.10;1.05;;;23.90;53.20;;;;;;5117251;28;20027;-71
2022/07/11 00:46:33;;;;;;;1.85;1.00;;;23.90;53.10;;;;;;5117226;28;20042;-72
2022/07/11 00:48:59;;;;;;;2.33;1.15;;;23.90;53.40;;;;;;5117080;28;20031;-71
2022/07/11 00:51:26;;;;;;;1.60;1.10;;;23.90;53.60;;;;;;5117206;28;20054;-71
2022/07/11 00:53:54;;;;;;;2.75;1.20;;;23.80;53.70;;;;;;5116690;28;20044;-72
2022/07/11 00:56:20;;;;;;;4.85;1.20;;;23.80;53.90;;;;;;5117101;28;20020;-71
2022/07/11 00:58:50;;;;;;;1.83;1.20;;;23.80;54.00;;;;;;5114427;28;20500;-71
2022/07/11 01:01:17;;;;;;;1.90;1.20;;;23.80;54.40;;;;;;5114105;28;20164;-71
2022/07/11 01:03:42;;;;;;;4.10;0.98;;;23.80;54.60;;;;;;5114227;28;20067;-71
2022/07/11 01:06:09;;;;;;;1.60;1.25;;;23.80;54.80;;;;;;5116358;28;20403;-71
2022/07/11 01:08:36;;;;;;;3.25;1.20;;;23.70;54.60;;;;;;5116697;28;20055;-71
2022/07/11 01:11:03;;;;;;;2.17;0.85;;;23.70;54.60;;;;;;5116678;28;20530;-71
2022/07/11 01:13:32;;;;;;;2.38;1.05;;;23.60;54.40;;;;;;5116189;28;20123;-71
2022/07/11 01:16:15;;;;;;;1.70;1.08;;;23.60;54.40;;;;;;5116473;28;20059;-70
2022/07/11 01:18:49;;;;;;;4.63;1.17;;;23.60;54.40;;;;;;5116379;28;20028;-71
2022/07/11 01:21:32;;;;;;;1.63;1.05;;;23.60;54.50;;;;;;5116376;28;20020;-71
2022/07/11 01:23:59;;;;;;;2.22;1.00;;;23.60;55.00;;;;;;5116555;28;20046;-71
2022/07/11 01:26:26;;;;;;;3.17;1.08;;;23.60;54.80;;;;;;5116373;28;20122;-71
2022/07/11 01:28:52;;;;;;;1.60;1.10;;;23.60;54.90;;;;;;5116095;28;20031;-71
2022/07/11 01:31:19;;;;;;;2.33;1.08;;;23.50;54.90;;;;;;5115978;28;20110;-71
2022/07/11 01:33:45;;;;;;;1.95;1.15;;;23.50;55.00;;;;;;5116118;28;20043;-71
2022/07/11 01:36:12;;;;;;;3.60;1.58;;;23.50;55.20;;;;;;5115773;28;20565;-72
2022/07/11 01:38:39;;;;;;;2.20;1.20;;;23.50;55.00;;;;;;5115975;28;20043;-71
2022/07/11 01:41:05;;;;;;;2.33;1.00;;;23.40;55.00;;;;;;5115311;28;20035;-71
2022/07/11 01:43:31;;;;;;;2.92;1.20;;;23.40;55.50;;;;;;5115957;28;20111;-71
2022/07/11 01:45:57;;;;;;;4.75;1.20;;;23.40;55.60;;;;;;5116011;28;20451;-71
2022/07/11 01:48:23;;;;;;;1.42;1.00;;;23.40;55.50;;;;;;5116106;28;20524;-71
2022/07/11 01:50:49;;;;;;;1.38;1.00;;;23.30;55.80;;;;;;5116163;28;20055;-71
2022/07/11 01:53:15;;;;;;;2.70;1.10;;;23.30;55.90;;;;;;5115791;28;20035;-71
2022/07/11 01:55:41;;;;;;;1.95;1.15;;;23.30;56.00;;;;;;5115736;28;20043;-71
2022/07/11 01:58:07;;;;;;;1.80;0.90;;;23.30;56.20;;;;;;5115578;28;20040;-71
2022/07/11 02:00:33;;;;;;;1.90;1.05;;;23.30;56.20;;;;;;5115645;28;20031;-71
2022/07/11 02:02:59;;;;;;;1.98;1.00;;;23.30;56.00;;;;;;5115894;28;20178;-71
2022/07/11 02:05:24;;;;;;;2.17;1.00;;;23.30;55.90;;;;;;5115561;28;20089;-71
2022/07/11 02:10:34;;;;;;;1.98;1.17;;;23.20;55.90;;;;;;5115383;28;20108;-71
2022/07/11 02:13:01;;;;;;;5.25;1.42;;;23.20;55.80;;;;;;5115542;28;20122;-71
2022/07/11 02:15:30;;;;;;;1.45;1.08;;;23.20;56.00;;;;;;5115371;28;20038;-71
2022/07/11 02:17:56;;;;;;;2.17;1.10;;;23.20;56.10;;;;;;5115518;28;20058;-72
2022/07/11 02:20:23;;;;;;;2.08;1.02;;;23.10;56.00;;;;;;5115256;28;20020;-71
2022/07/11 02:22:49;;;;;;;2.28;1.02;;;23.10;56.00;;;;;;5115556;28;20038;-71
2022/07/11 02:25:16;;;;;;;1.25;0.90;;;23.10;56.20;;;;;;5115250;28;20032;-71
2022/07/11 02:27:42;;;;;;;1.95;0.80;;;23.10;56.20;;;;;;5115460;28;20024;-71
2022/07/11 02:30:08;;;;;;;1.55;0.90;;;23.10;56.10;;;;;;5115070;28;20485;-71
2022/07/11 02:32:35;;;;;;;3.05;1.10;;;23.00;56.70;;;;;;5115389;28;20028;-71
2022/07/11 02:35:00;;;;;;;3.60;1.02;;;23.10;56.40;;;;;;5115173;28;20038;-71
2022/07/11 02:37:26;;;;;;;3.38;0.85;;;23.00;56.30;;;;;;5115325;28;20397;-71
2022/07/11 02:39:52;;;;;;;3.38;1.20;;;23.00;56.20;;;;;;5115021;28;20034;-71
2022/07/11 02:42:20;;;;;;;2.00;1.00;;;23.00;56.30;;;;;;5114814;28;20063;-71
2022/07/11 02:44:47;;;;;;;2.08;1.05;;;23.00;56.60;;;;;;5114866;28;20118;-71
2022/07/11 02:47:15;;;;;;;2.22;1.00;;;22.90;56.40;;;;;;5114829;28;20039;-71
2022/07/11 02:49:41;;;;;;;3.83;1.20;;;22.90;56.50;;;;;;5114743;28;20027;-71
2022/07/11 02:52:08;;;;;;;3.72;1.35;;;22.90;56.50;;;;;;5114796;28;20024;-71
2022/07/11 02:54:33;;;;;;;3.45;1.10;;;22.90;56.40;;;;;;5113563;28;20044;-71
2022/07/11 02:56:59;;;;;;;5.65;0.90;;;22.90;56.50;;;;;;5114860;28;20100;-71
2022/07/11 02:59:25;;;;;;;2.10;1.15;;;22.80;56.20;;;;;;5114755;28;20035;-71
2022/07/11 03:01:51;;;;;;;1.70;0.90;;;22.80;56.20;;;;;;5114349;28;20043;-71
2022/07/11 03:04:17;;;;;;;1.70;1.00;;;22.80;56.10;;;;;;5114747;28;20039;-71
2022/07/11 03:06:43;;;;;;;4.50;0.95;;;22.80;56.00;;;;;;5114635;28;20031;-71
2022/07/11 03:09:09;;;;;;;3.20;1.20;;;22.80;56.20;;;;;;5114264;28;20035;-71
2022/07/11 03:11:35;;;;;;;2.10;1.13;;;22.80;56.40;;;;;;5114451;28;20076;-72
2022/07/11 03:14:01;;;;;;;1.27;0.93;;;22.70;56.40;;;;;;5114808;28;20043;-71
2022/07/11 03:16:28;;;;;;;4.15;1.20;;;22.70;56.40;;;;;;5114237;28;20020;-72
2022/07/11 03:18:54;;;;;;;4.22;1.00;;;22.70;56.50;;;;;;5114183;28;20075;-71
2022/07/11 03:21:20;;;;;;;1.90;0.90;;;22.70;56.50;;;;;;5114282;28;20485;-71
2022/07/11 03:23:46;;;;;;;4.32;1.50;;;22.70;56.50;;;;;;5113927;28;20384;-71
2022/07/11 03:26:11;;;;;;;3.88;1.25;;;22.70;56.40;;;;;;5114192;28;20039;-71
2022/07/11 03:28:37;;;;;;;3.97;1.10;;;22.70;56.40;;;;;;5114090;28;20046;-71
2022/07/11 03:31:03;;;;;;;2.45;1.10;;;22.60;56.60;;;;;;5114433;28;20028;-71
2022/07/11 03:33:29;;;;;;;2.85;1.00;;;22.60;56.60;;;;;;5114080;28;20035;-71
2022/07/11 03:35:55;;;;;;;1.88;1.05;;;22.60;56.60;;;;;;5113824;28;20107;-72
2022/07/11 03:38:21;;;;;;;1.80;0.90;;;22.60;56.70;;;;;;5113767;28;20039;-71
2022/07/11 03:40:48;;;;;;;2.47;1.02;;;22.60;56.70;;;;;;5113974;28;20028;-71
2022/07/11 03:43:15;;;;;;;2.00;1.10;;;22.60;56.70;;;;;;5113404;28;20530;-71
2022/07/11 03:45:41;;;;;;;2.65;1.10;;;22.50;56.80;;;;;;5113718;28;20036;-71
2022/07/11 03:48:07;;;;;;;3.80;1.17;;;22.50;56.60;;;;;;5113475;28;20068;-71
2022/07/11 03:50:34;;;;;;;2.65;1.00;;;22.50;56.50;;;;;;5113026;28;20431;-71
2022/07/11 03:53:01;;;;;;;2.28;0.90;;;22.50;56.60;;;;;;5113144;28;20043;-71
2022/07/11 03:55:27;;;;;;;2.38;1.10;;;22.50;56.60;;;;;;5113559;28;20515;-71
2022/07/11 03:57:53;;;;;;;4.93;1.00;;;22.50;56.60;;;;;;5112899;28;20044;-70
2022/07/11 04:00:19;;;;;;;2.97;1.15;;;22.50;56.70;;;;;;5112555;28;20046;-71
2022/07/11 04:02:46;;;;;;;3.13;1.02;;;22.40;56.60;;;;;;5112507;28;20020;-72
2022/07/11 04:05:12;;;;;;;2.83;1.27;;;22.40;56.60;;;;;;5112660;28;20042;-71
2022/07/11 04:07:39;;;;;;;2.60;1.00;;;22.40;56.50;;;;;;5113028;28;20031;-72
2022/07/11 04:10:05;;;;;;;2.30;1.10;;;22.40;56.50;;;;;;5112622;28;20031;-71
2022/07/11 04:12:30;;;;;;;2.33;1.02;;;22.40;56.40;;;;;;5112554;28;20034;-71
2022/07/11 04:14:56;;;;;;;1.33;0.93;;;22.40;55.90;;;;;;5112740;28;20110;-71
2022/07/11 04:17:22;;;;;;;2.33;1.00;;;22.40;55.70;;;;;;5112379;28;20028;-71
2022/07/11 04:19:48;;;;;;;7.18;1.25;;;22.40;55.90;;;;;;5112448;28;20042;-71
2022/07/11 04:22:13;;;;;;;2.60;1.05;;;22.40;55.80;;;;;;5112571;28;20045;-72
2022/07/11 04:24:39;;;;;;;8.63;1.20;;;22.40;55.60;;;;;;5112491;28;20028;-71
2022/07/11 04:27:05;;;;;;;7.43;1.00;;;22.40;55.60;;;;;;5112390;28;20405;-72
2022/07/11 04:29:31;;;;;;;1.90;0.98;;;22.40;55.70;;;;;;5112318;28;20036;-72
2022/07/11 04:31:56;;;;;;;4.45;1.20;;;22.40;55.70;;;;;;5112611;28;20474;-71
2022/07/11 04:34:22;;;;;;;2.55;0.95;;;22.40;55.80;;;;;;5112299;28;20096;-72
2022/07/11 04:36:48;;;;;;;2.08;0.93;;;22.40;55.70;;;;;;5112200;28;20035;-72
2022/07/11 04:39:13;;;;;;;2.70;1.00;;;22.40;55.80;;;;;;5112242;28;20040;-72
2022/07/11 04:41:39;;;;;;;11.73;1.65;;;22.40;55.90;;;;;;5112296;28;20024;-72
2022/07/11 04:44:05;;;;;;;2.28;1.10;;;22.40;55.50;;;;;;5112165;28;20068;-72
2022/07/11 04:46:31;;;;;;;6.15;0.90;;;22.40;55.10;;;;;;5111472;28;20043;-70
2022/07/11 04:48:58;;;;;;;1.83;1.00;;;22.40;54.80;;;;;;5093439;28;20028;-71
2022/07/11 04:51:26;;;;;;;2.40;0.90;;;22.40;54.30;;;;;;5111912;28;20036;-72
2022/07/11 04:53:52;;;;;;;2.60;1.00;;;22.40;54.20;;;;;;5111961;28;20060;-72
2022/07/11 04:56:18;;;;;;;3.67;0.93;;;22.40;54.30;;;;;;5112257;28;20028;-72
2022/07/11 04:58:43;;;;;;;6.15;1.00;;;22.40;54.20;;;;;;5069873;28;1210316;-72
2022/07/11 05:01:09;;;;;;;3.80;0.98;;;22.50;53.80;;;;;;5112855;28;20036;-72
2022/07/11 05:03:36;;;;;;;2.95;0.90;;;22.50;53.60;;;;;;5112585;28;20115;-72
2022/07/11 05:06:02;;;;;;;3.28;0.98;;;22.40;53.40;;;;;;5113117;28;20409;-72
2022/07/11 05:08:29;;;;;;;2.33;0.93;;;22.40;53.60;;;;;;5113072;28;20118;-73
2022/07/11 05:10:55;;;;;;;4.82;1.00;;;22.40;53.90;;;;;;5112737;28;20027;-72
2022/07/11 05:13:21;;;;;;;3.45;0.80;;;22.40;53.50;;;;;;5112722;28;20039;-72
2022/07/11 05:15:46;;;;;;;5.03;0.95;;;22.40;53.20;;;;;;5112597;28;20024;-73
2022/07/11 05:18:12;;;;;;;1.45;0.80;;;22.40;53.00;;;;;;5115082;28;20111;-73
2022/07/11 05:20:38;;;;;;;4.13;0.82;;;22.40;53.00;;;;;;5115055;28;20485;-73
2022/07/11 05:23:03;;;;;;;2.15;0.70;;;22.40;52.60;;;;;;5116170;28;20035;-73
2022/07/11 05:25:29;;;;;;;2.67;0.88;;;22.30;52.20;;;;;;5116229;28;20111;-72
2022/07/11 05:27:55;;;;;;;1.58;0.80;;;22.40;52.00;;;;;;5116387;28;20032;-73
2022/07/11 05:30:21;;;;;;;1.83;1.08;;;22.30;51.90;;;;;;5116507;28;20024;-72
2022/07/11 05:32:47;;;;;;;2.75;0.80;;;22.30;51.90;;;;;;5116132;28;20503;-73
2022/07/11 05:35:12;;;;;;;7.28;0.85;;;22.30;52.00;;;;;;5116176;28;20354;-71
2022/07/11 05:37:38;;;;;;;6.95;1.00;;;22.30;52.20;;;;;;5115969;28;20532;-72
2022/07/11 05:40:05;;;;;;;3.95;1.02;;;22.30;52.10;;;;;;5116037;28;20393;-72
2022/07/11 05:42:31;;;;;;;4.88;1.70;;;22.40;52.20;;;;;;5115930;28;20397;-72
2022/07/11 05:44:57;;;;;;;3.70;0.85;;;22.40;51.90;;;;;;5115682;28;20046;-73
2022/07/11 05:47:23;;;;;;;1.48;0.82;;;22.30;52.00;;;;;;5116004;28;20565;-72
2022/07/11 05:49:48;;;;;;;7.18;1.15;;;22.40;52.10;;;;;;5115926;28;20035;-72
2022/07/11 05:52:15;;;;;;;3.97;0.82;;;22.30;51.90;;;;;;5116115;28;20038;-73
2022/07/11 05:54:40;;;;;;;5.10;0.95;;;22.30;52.00;;;;;;5116053;28;20046;-72
2022/07/11 05:57:06;;;;;;;6.13;0.90;;;22.40;52.10;;;;;;5115651;28;20536;-72
2022/07/11 05:59:32;;;;;;;2.90;1.08;;;22.40;51.90;;;;;;5115876;28;20027;-72
2022/07/11 06:01:58;;;;;;;3.97;0.90;;;22.40;51.70;;;;;;5115374;28;20475;-72
2022/07/11 06:04:23;;;;;;;2.78;0.95;;;22.40;51.70;;;;;;5115668;28;20542;-72
2022/07/11 06:06:49;;;;;;;1.10;0.70;;;22.40;51.70;;;;;;5115654;28;20039;-72
2022/07/11 06:09:15;;;;;;;3.13;0.82;;;22.50;51.60;;;;;;5115777;28;20112;-72
2022/07/11 06:11:41;;;;;;;4.47;1.02;;;22.50;51.50;;;;;;5115884;28;20032;-72
2022/07/11 06:14:07;;;;;;;3.70;0.70;;;22.50;51.60;;;;;;5115439;28;20048;-72
2022/07/11 06:16:32;;;;;;;2.78;0.70;;;22.50;51.50;;;;;;5115336;28;20501;-73
2022/07/11 06:18:58;;;;;;;7.60;1.05;;;22.50;51.40;;;;;;5115622;28;20118;-72
2022/07/11 06:21:25;;;;;;;5.03;0.95;;;22.60;51.50;;;;;;5115437;28;20505;-73
2022/07/11 06:23:51;;;;;;;2.72;0.90;;;22.70;51.60;;;;;;5115557;28;20388;-73
2022/07/11 06:26:17;;;;;;;3.35;0.70;;;22.70;51.50;;;;;;5115434;28;20038;-73
2022/07/11 06:28:43;;;;;;;2.92;0.98;;;22.70;51.00;;;;;;5114158;28;20031;-72
2022/07/11 06:31:09;;;;;;;2.70;1.00;;;22.70;51.00;;;;;;5114959;28;20511;-72
2022/07/11 06:33:35;;;;;;;3.85;0.70;;;22.80;51.00;;;;;;5115193;28;20498;-72
2022/07/11 06:36:01;;;;;;;2.33;0.80;;;22.80;50.50;;;;;;5115225;28;20031;-72
2022/07/11 06:38:28;;;;;;;3.53;0.90;;;22.80;50.40;;;;;;5115130;28;20032;-72
2022/07/11 06:40:54;;;;;;;2.38;0.90;;;22.80;50.60;;;;;;5114626;28;20107;-72
2022/07/11 06:43:20;;;;;;;5.80;0.88;;;22.90;50.70;;;;;;5114694;28;20082;-72
2022/07/11 06:45:46;;;;;;;4.18;0.85;;;23.00;51.00;;;;;;5114848;28;20056;-72
2022/07/11 06:48:12;;;;;;;5.13;1.00;;;23.00;50.80;;;;;;5115147;28;20035;-73
2022/07/11 06:50:38;;;;;;;2.85;0.85;;;23.10;50.70;;;;;;5114737;28;20044;-72
2022/07/11 06:53:04;;;;;;;3.60;0.98;;;23.10;50.30;;;;;;5114812;28;20047;-73
2022/07/11 06:55:31;;;;;;;2.17;1.05;;;23.20;50.00;;;;;;5114869;28;20035;-73
2022/07/11 06:57:57;;;;;;;4.32;0.73;;;23.20;49.70;;;;;;5114779;28;20052;-72
2022/07/11 07:00:22;;;;;;;1.08;0.77;;;23.30;49.30;;;;;;5114505;28;20028;-72
2022/07/11 07:02:48;;;;;;;2.92;1.10;;;23.30;49.40;;;;;;5114890;28;20031;-72
2022/07/11 07:05:14;;;;;;;3.03;0.70;;;23.30;49.50;;;;;;5114626;28;20069;-72
2022/07/11 07:07:40;;;;;;;1.65;0.70;;;23.30;49.30;;;;;;5114318;28;20120;-72
2022/07/11 07:10:07;;;;;;;2.85;0.90;;;23.30;49.40;;;;;;5114486;28;20093;-72
2022/07/11 07:12:38;;;;;;;2.85;0.68;;;23.30;49.50;;;;;;5113977;28;20077;-72
2022/07/11 07:15:04;;;;;;;4.22;0.90;;;23.20;49.40;;;;;;5114353;28;20023;-72
2022/07/11 07:17:31;;;;;;;8.60;1.08;;;23.20;49.40;;;;;;5114483;28;20389;-72
2022/07/11 07:19:57;;;;;;;4.70;0.90;;;23.20;49.60;;;;;;5114383;28;20027;-72
2022/07/11 07:22:22;;;;;;;1.85;0.88;;;23.30;49.70;;;;;;5114161;28;20553;-72
2022/07/11 07:24:48;;;;;;;3.80;0.98;;;23.30;49.70;;;;;;5114221;28;20409;-72
2022/07/11 07:27:14;;;;;;;2.83;0.98;;;23.40;49.30;;;;;;5114040;28;20074;-73
2022/07/11 07:29:40;;;;;;;3.92;1.02;;;23.50;49.30;;;;;;5114021;28;20055;-73
2022/07/11 07:32:06;;;;;;;6.45;0.88;;;23.50;49.10;;;;;;5113943;28;20393;-73
2022/07/11 07:34:32;;;;;;;1.90;0.90;;;23.60;49.20;;;;;;5113822;28;20036;-73
2022/07/11 07:36:59;;;;;;;3.63;0.88;;;23.70;48.90;;;;;;5113959;28;20034;-73
2022/07/11 07:39:24;;;;;;;2.05;0.80;;;23.80;48.80;;;;;;5113523;28;20402;-73
2022/07/11 07:41:50;;;;;;;4.38;0.90;;;23.80;48.50;;;;;;5113934;28;20027;-73
2022/07/11 07:44:16;;;;;;;3.33;0.70;;;23.90;48.30;;;;;;5113838;28;20485;-73
2022/07/11 07:46:42;;;;;;;3.90;1.05;;;23.90;48.30;;;;;;5113956;28;20031;-73
2022/07/11 07:49:07;;;;;;;1.85;0.77;;;24.00;48.30;;;;;;5113925;28;20118;-73
2022/07/11 07:51:33;;;;;;;4.10;1.10;;;24.00;48.10;;;;;;5113641;28;20023;-72
2022/07/11 07:53:59;;;;;;;1.85;0.80;;;24.00;48.10;;;;;;5113508;28;20127;-74
2022/07/11 07:56:25;;;;;;;1.75;0.80;;;24.10;47.50;;;;;;5113034;28;20023;-73
2022/07/11 07:58:54;;;;;;;2.00;0.90;;;24.10;47.70;;;;;;5113526;28;20043;-72
2022/07/11 08:01:35;;;;;;;1.65;0.85;;;24.20;47.10;;;;;;5113789;28;20032;-73
2022/07/11 08:04:04;;;;;;;3.88;0.75;;;24.20;47.40;;;;;;5112859;28;20088;-72
2022/07/11 08:06:31;;;;;;;2.00;0.80;;;24.20;48.20;;;;;;5113294;28;20023;-73
2022/07/11 08:08:57;;;;;;;3.47;1.02;;;24.30;47.70;;;;;;5113064;28;20028;-75
2022/07/11 08:11:23;;;;;;;2.22;0.80;;;24.30;47.10;;;;;;5113462;28;20106;-69
2022/07/11 08:13:49;;;;;;;1.40;0.65;;;24.30;46.90;;;;;;5113219;28;20039;-70
2022/07/11 08:16:15;;;;;;;5.30;1.00;;;24.40;46.70;;;;;;5113093;28;20436;-71
2022/07/11 08:18:41;;;;;;;4.28;1.00;;;24.40;46.40;;;;;;5112763;28;20032;-70
2022/07/11 08:21:06;;;;;;;1.50;0.90;;;24.40;46.40;;;;;;5113201;28;20032;-70
2022/07/11 08:23:32;;;;;;;3.03;1.00;;;24.40;46.40;;;;;;5113124;28;20063;-70
2022/07/11 08:25:58;;;;;;;8.50;1.08;;;24.40;46.40;;;;;;5113450;28;20031;-70
2022/07/11 08:28:23;;;;;;;2.70;0.85;;;24.30;46.50;;;;;;5113401;28;20035;-70
2022/07/11 08:30:49;;;;;;;3.38;0.77;;;24.30;46.70;;;;;;5113030;28;20034;-70
2022/07/11 08:33:15;;;;;;;2.80;0.82;;;24.30;46.80;;;;;;5112916;28;20059;-71
2022/07/11 08:35:41;;;;;;;6.57;0.90;;;24.40;46.80;;;;;;5112974;28;20398;-71
2022/07/11 08:38:06;;;;;;;1.92;0.73;;;24.30;46.60;;;;;;5113106;28;20389;-70
2022/07/11 08:40:32;;;;;;;18.33;4.05;;;24.30;46.50;;;;;;5113058;28;20032;-70
2022/07/11 08:42:58;;;;;;;10.85;2.80;;;24.40;47.10;;;;;;5113008;28;20024;-71
2022/07/11 08:45:30;;;;;;;2.40;0.90;;;24.40;47.90;;;;;;5112897;28;20067;-70
2022/07/11 08:47:58;;;;;;;3.25;0.93;;;24.40;47.80;;;;;;5112787;28;20069;-70
2022/07/11 08:50:26;;;;;;;2.17;0.80;;;24.40;47.70;;;;;;5113190;28;20512;-70
2022/07/11 08:52:58;;;;;;;2.83;0.93;;;24.30;47.50;;;;;;5115691;28;20401;-72
2022/07/11 08:55:24;;;;;;;4.72;0.93;;;24.30;47.50;;;;;;5117049;28;20521;-72
2022/07/11 08:57:50;;;;;;;2.40;0.90;;;24.40;47.70;;;;;;5116727;28;20104;-72
2022/07/11 09:00:16;;;;;;;4.85;0.70;;;24.40;47.70;;;;;;5116698;28;20048;-73
2022/07/11 09:02:43;;;;;;;3.70;0.90;;;24.30;47.40;;;;;;5115739;28;20095;-72
2022/07/11 09:05:09;;;;;;;1.63;0.70;;;24.40;47.20;;;;;;5115707;28;20031;-74
2022/07/11 09:07:43;;;;;;;6.38;0.98;;;24.40;47.10;;;;;;5116190;28;20386;-72
2022/07/11 09:10:09;;;;;;;3.60;0.80;;;24.40;46.90;;;;;;5116277;28;20362;-72
2022/07/11 09:12:34;;;;;;;3.42;0.88;;;24.30;46.90;;;;;;5116090;28;20047;-72
2022/07/11 09:15:00;;;;;;;1.35;0.80;;;24.40;47.20;;;;;;5116202;28;20442;-72
2022/07/11 09:17:28;;;;;;;5.60;0.90;;;24.40;47.50;;;;;;5116252;28;20027;-72
2022/07/11 09:19:54;;;;;;;1.90;0.90;;;24.50;47.50;;;;;;5115778;28;20040;-72
2022/07/11 09:25:19;;;;;;;1.63;0.70;;;24.50;47.30;;;;;;5116168;28;20161;-72
2022/07/11 09:27:50;;;;;;;2.33;0.98;;;24.50;47.20;;;;;;5116132;28;20039;-72
2022/07/11 09:30:48;;;;;;;4.03;0.88;;;24.50;47.10;;;;;;5115397;28;20357;-72
2022/07/11 09:33:15;;;;;;;2.30;1.08;;;24.60;47.20;;;;;;5059389;28;20043;-72
2022/07/11 09:35:45;;;;;;;2.22;0.70;;;24.60;47.30;;;;;;5115681;28;20063;-72
2022/07/11 09:38:12;;;;;;;8.35;0.93;;;24.60;47.50;;;;;;5115072;28;20039;-72
2022/07/11 09:40:42;;;;;;;3.78;0.80;;;24.70;47.50;;;;;;5115248;28;20510;-72
2022/07/11 09:43:08;;;;;;;2.97;0.90;;;24.70;47.40;;;;;;5116019;28;20036;-71
2022/07/11 09:45:35;;;;;;;1.75;0.90;;;24.80;47.50;;;;;;5116664;28;20039;-72
2022/07/11 09:48:22;;;;;;;2.15;0.90;;;24.80;47.60;;;;;;5115539;28;20035;-71
2022/07/11 09:50:56;;;;;;;1.17;0.70;;;24.90;47.60;;;;;;5115609;28;20038;-71
2022/07/11 09:53:21;;;;;;;1.58;0.85;;;25.00;47.20;;;;;;5116106;28;20043;-72
2022/07/11 09:55:47;;;;;;;2.50;0.82;;;25.10;47.40;;;;;;5115994;28;20097;-72
2022/07/11 09:58:15;;;;;;;1.27;0.80;;;25.20;46.80;;;;;;5115765;28;20079;-72
2022/07/11 10:00:42;;;;;;;2.60;0.73;;;25.20;46.80;;;;;;5115816;28;20512;-71
2022/07/11 10:03:10;;;;;;;1.88;0.88;;;25.20;46.80;;;;;;5115525;28;20039;-72
2022/07/11 10:05:36;;;;;;;2.85;1.00;;;25.30;46.70;;;;;;5115805;28;20482;-72
2022/07/11 10:08:03;;;;;;;1.35;1.00;;;25.20;46.50;;;;;;5115708;28;20027;-71
2022/07/11 10:10:30;;;;;;;1.20;0.80;;;25.30;46.50;;;;;;5115573;28;20054;-71
2022/07/11 10:12:56;;;;;;;4.50;1.02;;;25.30;46.50;;;;;;5115651;28;20055;-72
2022/07/11 10:15:34;;;;;;;1.35;0.80;;;25.30;46.60;;;;;;5115574;28;20414;-71
2022/07/11 10:18:11;;;;;;;4.00;1.27;;;25.30;46.80;;;;;;5115142;28;20566;-70
2022/07/11 10:21:00;;;;;;;6.80;0.85;;;25.30;46.80;;;;;;5115784;28;20389;-71
2022/07/11 10:23:51;;;;;;;5.97;1.00;;;25.30;46.90;;;;;;5115529;28;20439;-72
2022/07/11 10:26:37;;;;;;;2.85;0.98;;;25.30;46.90;;;;;;5115646;28;20562;-72
2022/07/11 10:29:09;;;;;;;1.98;0.70;;;25.40;46.90;;;;;;5115498;28;20063;-71
2022/07/11 10:31:35;;;;;;;2.00;0.95;;;25.50;46.90;;;;;;5115769;28;20024;-72
2022/07/11 10:34:03;;;;;;;3.60;1.17;;;25.50;46.70;;;;;;5115002;28;20051;-72
2022/07/11 10:36:30;;;;;;;2.72;1.00;;;25.60;46.70;;;;;;5115105;28;20031;-72
2022/07/11 10:39:18;;;;;;;1.95;0.90;;;25.70;46.70;;;;;;5115277;28;20110;-72
2022/07/11 10:41:45;;;;;;;3.33;0.90;;;25.70;46.50;;;;;;5115167;28;20032;-72
2022/07/11 10:44:11;;;;;;;3.15;0.82;;;25.70;46.40;;;;;;5115222;28;20466;-72
2022/07/11 10:46:37;;;;;;;2.40;1.10;;;25.70;46.40;;;;;;5114755;28;20393;-72
2022/07/11 10:49:18;;;;;;;1.52;1.00;;;25.70;46.40;;;;;;5113887;28;20028;-72
2022/07/11 10:51:49;;;;;;;2.08;1.05;;;25.70;46.30;;;;;;5113341;28;20036;-72
2022/07/11 10:54:51;;;;;;;4.55;1.00;;;25.70;46.20;;;;;;5114348;28;20039;-71
2022/07/11 10:57:21;;;;;;;;;;;25.70;46.00;;;;;;5113287;28;20036;-70
2022/07/11 10:59:58;;;;;;;1.23;1.00;;;25.70;46.00;;;;;;5094657;28;20262;-70
2022/07/11 11:02:25;;;;;;;6.20;1.35;;;25.70;46.00;;;;;;5112554;28;20106;-72
2022/07/11 11:05:00;;;;;;;2.40;0.93;;;25.80;46.10;;;;;;5113685;28;20047;-72
2022/07/11 11:07:42;;;;;;;4.68;1.10;;;25.80;45.90;;;;;;5113526;28;20111;-71
2022/07/11 11:10:27;;;;;;;;;;;25.80;45.70;;;;;;5113810;28;20024;-72
2022/07/11 11:13:05;;;;;;;1.30;1.08;;;25.80;45.70;;;;;;5113831;28;19957;-72
2022/07/11 11:15:54;;;;;;;2.67;0.90;;;25.80;45.70;;;;;;5113785;28;20054;-72
2022/07/11 11:18:23;;;;;;;1.85;1.10;;;25.80;45.60;;;;;;5113723;28;20092;-72
2022/07/11 11:21:00;;;;;;;6.13;1.10;;;25.90;45.60;;;;;;5113820;28;20069;-72
2022/07/11 11:23:34;;;;;;;2.97;1.08;;;25.90;45.60;;;;;;5114266;28;20050;-72
2022/07/11 11:26:05;;;;;;;3.25;1.10;;;25.90;45.30;;;;;;5113432;28;20031;-72
2022/07/11 11:28:31;;;;;;;3.03;1.10;;;26.00;45.20;;;;;;5113722;28;20038;-72
2022/07/11 11:30:59;;;;;;;4.20;1.17;;;25.90;45.30;;;;;;5113797;28;20023;-72
2022/07/11 11:33:27;;;;;;;1.45;0.88;;;26.00;45.50;;;;;;5111314;28;20170;-72
2022/07/11 11:36:03;;;;;;;2.22;0.80;;;26.00;45.50;;;;;;5110868;28;20036;-71
2022/07/11 11:38:30;;;;;;;2.63;1.20;;;26.00;45.40;;;;;;5111704;28;20048;-72
2022/07/11 11:40:55;;;;;;;4.25;1.15;;;26.00;46.00;;;;;;5112645;28;20186;-72
2022/07/11 11:43:22;;;;;;;3.47;1.08;;;26.00;45.60;;;;;;5113697;28;20118;-72
2022/07/11 11:45:54;;;;;;;3.83;1.00;;;26.00;45.50;;;;;;5113609;28;20023;-72
2022/07/11 11:48:30;;;;;;;4.45;1.23;;;26.00;45.40;;;;;;5113462;28;20028;-72
2022/07/11 11:51:08;;;;;;;3.50;1.27;;;26.00;45.50;;;;;;5113696;28;20024;-72
2022/07/11 11:53:39;;;;;;;5.70;1.30;;;26.00;45.90;;;;;;5112878;28;20044;-72
2022/07/11 11:56:28;;;;;;;3.50;1.00;;;26.10;46.10;;;;;;5111608;28;20024;-72
2022/07/11 11:58:57;;;;;;;1.67;0.80;;;26.20;45.80;;;;;;5113057;28;20046;-72
2022/07/11 12:01:32;;;;;;;2.00;1.10;;;26.20;45.80;;;;;;5113220;28;20046;-71
2022/07/11 12:04:08;;;;;;;2.55;1.00;;;26.30;45.90;;;;;;5113171;28;20440;-72
2022/07/11 12:06:35;;;;;;;7.93;1.00;;;26.30;45.90;;;;;;5113344;28;20024;-71
2022/07/11 12:09:10;;;;;;;2.47;1.00;;;26.40;45.90;;;;;;5113445;28;20040;-70
2022/07/11 12:11:37;;;;;;;2.90;0.93;;;26.50;45.50;;;;;;5113496;28;20035;-72
2022/07/11 12:14:05;;;;;;;3.30;1.58;;;26.60;45.20;;;;;;5113213;28;20050;-72
2022/07/11 12:16:39;;;;;;;2.33;0.85;;;26.70;45.10;;;;;;5113240;28;20130;-72
2022/07/11 12:19:07;;;;;;;1.80;1.15;;;26.80;45.20;;;;;;5112201;28;20038;-72
2022/07/11 12:21:34;;;;;;;2.90;0.98;;;26.90;45.00;;;;;;5112765;28;20438;-71
2022/07/11 12:24:03;;;;;;;2.00;1.00;;;26.90;44.40;;;;;;5112391;28;20482;-72
2022/07/11 12:26:31;;;;;;;5.57;1.20;;;27.00;44.10;;;;;;5114371;28;20035;-72
2022/07/11 12:29:22;;;;;;;3.78;1.10;;;27.10;44.20;;;;;;5116332;28;20028;-72
2022/07/11 12:31:53;;;;;;;6.95;1.30;;;27.10;44.30;;;;;;5113773;28;20043;-72
2022/07/11 12:34:25;;;;;;;2.03;0.98;;;27.10;43.70;;;;;;5114047;28;20489;-71
2022/07/11 12:37:01;;;;;;;4.18;1.20;;;27.00;43.80;;;;;;5116357;28;20106;-71
2022/07/11 12:39:29;;;;;;;3.00;0.88;;;27.00;43.90;;;;;;5116478;28;20400;-72
2022/07/11 12:41:57;;;;;;;4.72;0.88;;;27.10;43.70;;;;;;5116616;28;20020;-71
2022/07/11 12:47:11;;;;;;;3.10;0.90;;;27.10;43.40;;;;;;5113916;28;20059;-72
2022/07/11 12:49:39;;;;;;;3.42;0.80;;;27.20;43.70;;;;;;5113859;28;20456;-73
2022/07/11 12:52:06;;;;;;;5.13;0.93;;;27.30;43.90;;;;;;5095586;28;20055;-72
2022/07/11 12:54:33;;;;;;;3.80;1.20;;;27.30;43.90;;;;;;5113495;28;20047;-72
2022/07/11 12:57:03;;;;;;;1.60;0.90;;;27.40;43.40;;;;;;5118750;27;20031;-72
2022/07/11 12:59:33;;;;;;;2.15;1.35;;;27.50;43.40;;;;;;5134508;27;20138;-73